Porto Alegre, Brazil
Current Conditions -  °F | °C
As of 3:00 PM on Sunday 21 Dec 2014 (Local Time) from SBPA Reporting Station
Light Rain Light Rain  
Wind Chill: 75°   Ceiling: 1300
Heat Index: 75°   Visibility: 1.8mi
Dew Point: 73°   Wind: 7mph
Humidity: 94%   Direction: 190°S
Pressure: 29.53"   Gusts: NA
Location:  30.04°S, 51.22°W
Report Text: SBPA 211700Z 19006KT 150V240 3000 -RA BR SCT006 BKN013 BKN022 FEW030TCU 24/23 Q1000 WS R11
Loading
Personal Weather Stations






























Interactive Weather Map New forecast layout! Learn more

10-Day Weather Forecast

Advertisements
Track Severe Weather on mobile